Time;durP1;ratioP1;P1;durP2;ratioP2;P2;SDS_P1;SDS_P2;PMS_P1;PMS_P2;Temp;Humidity;BMP_temperature;BMP_pressure;BME280_temperature;BME280_humidity;BME280_pressure;Samples;Min_cycle;Max_cycle;Signal;HPM_P1;HPM_P2
2023/11/22 00:01:58;;;;;;;;;;;;;;;15.99;44.49;100179.66;5098908;28;1018;-45
2023/11/22 00:04:24;;;;;;;;;;;;;;;16.75;45.04;100180.66;5098756;28;1126;-48
2023/11/22 00:06:50;;;;;;;;;;;;;;;16.36;46.33;100179.34;5098465;28;1985;-45
2023/11/22 00:09:15;;;;;;;;;;;;;;;17.77;44.95;100177.53;5098859;28;1086;-47
2023/11/22 00:11:41;;;;;;;;;;;;;;;17.04;45.51;100177.38;5098707;28;1062;-50
2023/11/22 00:14:06;;;;;;;;;;;;;;;16.51;45.11;100164.00;5098532;28;1132;-50
2023/11/22 00:16:32;;;;;;;;;;;;;;;16.32;44.26;100163.78;5098727;28;1116;-49
2023/11/22 00:18:57;;;;;;;;;;;;;;;16.72;45.91;100163.16;5098156;28;895;-47
2023/11/22 00:21:23;;;;;;;;;;;;;;;16.69;45.71;100165.22;5098196;28;1133;-49
2023/11/22 00:23:49;;;;;;;;;;;;;;;16.37;44.91;100167.75;5096971;28;896;-48
2023/11/22 00:26:15;;;;;;;;;;;;;;;16.05;44.25;100159.75;5097298;28;2008;-45
2023/11/22 00:28:47;;;;;;;;;;;;;;;16.01;43.48;100149.41;5084955;28;1168;-47
2023/11/22 00:31:14;;;;;;;;;;;;;;;15.93;43.13;100141.19;5096793;28;1303;-45
2023/11/22 00:33:40;;;;;;;;;;;;;;;17.08;45.23;100151.41;5131007;27;1065;-48
2023/11/22 00:36:07;;;;;;;;;;;;;;;16.36;45.21;100144.00;5098223;28;1067;-47
2023/11/22 00:38:35;;;;;;;;;;;;;;;16.00;44.29;100142.38;5098054;28;1093;-46
2023/11/22 00:41:02;;;;;;;;;;;;;;;15.99;44.53;100139.88;5098254;28;1099;-44
2023/11/22 00:43:27;;;;;;;;;;;;;;;16.51;45.47;100145.41;5113337;28;918;-47
2023/11/22 00:45:53;;;;;;;;;;;;;;;16.08;44.86;100140.94;5130846;27;1984;-48
2023/11/22 00:48:18;;;;;;;;;;;;;;;15.96;44.00;100142.72;5097890;28;1070;-45
2023/11/22 00:50:44;;;;;;;;;;;;;;;16.77;45.46;100144.19;5097981;28;1026;-47
2023/11/22 00:53:09;;;;;;;;;;;;;;;16.40;45.03;100143.63;5098054;28;1082;-47
2023/11/22 00:55:35;;;;;;;;;;;;;;;16.14;44.21;100133.31;5097467;28;1010;-45
2023/11/22 00:58:04;;;;;;;;;;;;;;;15.83;43.98;100121.66;5097775;28;1237;-48
2023/11/22 01:00:30;;;;;;;;;;;;;;;16.94;45.13;100137.47;5098022;28;1134;-45
2023/11/22 01:02:55;;;;;;;;;;;;;;;16.28;45.11;100128.72;5097758;28;1066;-49
2023/11/22 01:05:22;;;;;;;;;;;;;;;16.03;44.61;100130.72;5097470;28;1205;-46
2023/11/22 01:07:48;;;;;;;;;;;;;;;17.00;44.96;100136.09;5097428;28;1906;-47
2023/11/22 01:10:13;;;;;;;;;;;;;;;16.27;45.22;100134.97;5097030;28;1109;-45
2023/11/22 01:12:39;;;;;;;;;;;;;;;16.01;44.72;100127.31;5097876;28;1102;-44
2023/11/22 01:15:05;;;;;;;;;;;;;;;15.91;43.47;100133.31;5097170;28;1019;-47
2023/11/22 01:17:31;;;;;;;;;;;;;;;16.72;44.99;100128.63;5097846;28;1113;-45
2023/11/22 01:19:58;;;;;;;;;;;;;;;16.17;44.98;100124.25;5096972;28;887;-48
2023/11/22 01:22:24;;;;;;;;;;;;;;;15.96;44.21;100130.31;5095985;28;1066;-44
2023/11/22 01:24:49;;;;;;;;;;;;;;;16.71;45.16;100131.44;5097126;28;1078;-46
2023/11/22 01:27:15;;;;;;;;;;;;;;;16.31;45.07;100124.94;5097125;28;1977;-45
2023/11/22 01:29:41;;;;;;;;;;;;;;;15.99;44.47;100124.78;5097405;28;1126;-46
2023/11/22 01:32:08;;;;;;;;;;;;;;;16.34;45.24;100120.25;5096860;28;941;-45
2023/11/22 01:34:34;;;;;;;;;;;;;;;16.28;44.93;100118.91;5097359;28;1070;-47
2023/11/22 01:37:00;;;;;;;;;;;;;;;15.97;44.70;100108.13;5096712;28;1081;-48
2023/11/22 01:39:26;;;;;;;;;;;;;;;16.59;45.46;100112.03;5097293;28;1082;-46
2023/11/22 01:41:52;;;;;;;;;;;;;;;16.34;45.58;100111.41;5097440;28;1022;-48
2023/11/22 01:44:18;;;;;;;;;;;;;;;16.11;44.55;100106.19;5095051;28;872;-47
2023/11/22 01:46:44;;;;;;;;;;;;;;;15.89;44.10;100105.25;5096881;28;1906;-48
2023/11/22 01:49:10;;;;;;;;;;;;;;;15.82;43.35;100096.94;5097078;28;1237;-46
2023/11/22 01:51:35;;;;;;;;;;;;;;;16.80;44.96;100103.25;5097206;28;1135;-44
2023/11/22 01:54:01;;;;;;;;;;;;;;;16.14;45.10;100084.72;5097045;28;1146;-46
2023/11/22 01:56:27;;;;;;;;;;;;;;;16.58;45.56;100097.09;5078208;28;1236;-47
2023/11/22 01:58:54;;;;;;;;;;;;;;;17.06;44.81;100095.72;5112035;28;1074;-46
2023/11/22 02:01:20;;;;;;;;;;;;;;;16.36;45.08;100101.53;5095611;28;1263;-46
2023/11/22 02:03:52;;;;;;;;;;;;;;;16.07;44.30;100097.63;5094964;28;1162;-47
2023/11/22 02:06:17;;;;;;;;;;;;;;;16.04;44.58;100095.25;5096361;28;1913;-47
2023/11/22 02:08:43;;;;;;;;;;;;;;;16.60;45.42;100103.94;5096497;28;868;-47
2023/11/22 02:11:09;;;;;;;;;;;;;;;16.14;44.81;100104.13;5095055;28;1059;-47
2023/11/22 02:13:35;;;;;;;;;;;;;;;16.00;43.92;100097.28;5096285;28;1038;-47
2023/11/22 02:16:01;;;;;;;;;;;;;;;16.58;45.50;100092.59;5129408;27;1188;-46
2023/11/22 02:18:27;;;;;;;;;;;;;;;16.30;45.19;100089.59;5096492;28;972;-48
2023/11/22 02:20:52;;;;;;;;;;;;;;;15.94;44.72;100088.94;5094899;28;2009;-47
2023/11/22 02:23:18;;;;;;;;;;;;;;;15.79;43.72;100087.44;5095276;28;1098;-44
2023/11/22 02:25:43;;;;;;;;;;;;;;;16.57;45.09;100087.41;5095013;28;1906;-45
2023/11/22 02:28:09;;;;;;;;;;;;;;;16.36;45.00;100081.16;5095746;28;1152;-43
2023/11/22 02:30:35;;;;;;;;;;;;;;;16.01;44.51;100085.72;5096620;28;1062;-45
2023/11/22 02:33:00;;;;;;;;;;;;;;;16.51;45.50;100087.00;5096456;28;920;-48
2023/11/22 02:35:26;;;;;;;;;;;;;;;16.37;45.41;100074.00;5096528;28;1117;-49
2023/11/22 02:37:52;;;;;;;;;;;;;;;16.03;44.39;100077.66;5096338;28;1046;-49
2023/11/22 02:40:21;;;;;;;;;;;;;;;16.70;45.20;100074.81;5096513;28;1082;-50
2023/11/22 02:42:47;;;;;;;;;;;;;;;16.59;45.01;100077.53;5096315;28;1078;-47
2023/11/22 02:45:13;;;;;;;;;;;;;;;16.22;44.63;100073.47;5096280;28;1066;-51
2023/11/22 02:47:39;;;;;;;;;;;;;;;16.91;45.53;100081.09;5095569;28;1909;-46
2023/11/22 02:50:05;;;;;;;;;;;;;;;16.54;45.17;100083.22;5096396;28;1125;-46
2023/11/22 02:52:31;;;;;;;;;;;;;;;16.13;44.65;100089.16;5096708;28;1186;-46
2023/11/22 02:54:56;;;;;;;;;;;;;;;15.98;44.05;100083.31;5094646;28;1110;-46
2023/11/22 02:57:22;;;;;;;;;;;;;;;16.25;44.69;100083.81;5094768;28;1011;-45
2023/11/22 02:59:47;;;;;;;;;;;;;;;16.43;45.21;100089.44;5095654;28;1126;-48
2023/11/22 03:02:14;;;;;;;;;;;;;;;16.06;44.55;100090.66;5096695;28;1090;-46
2023/11/22 03:04:40;;;;;;;;;;;;;;;15.88;43.92;100085.81;5094796;28;1206;-45
2023/11/22 03:07:06;;;;;;;;;;;;;;;16.39;45.33;100085.34;5095860;28;1981;-46
2023/11/22 03:09:32;;;;;;;;;;;;;;;16.48;45.04;100094.38;5099405;28;1166;-46
2023/11/22 03:11:57;;;;;;;;;;;;;;;16.05;44.75;100096.09;5100131;28;1215;-48
2023/11/22 03:14:23;;;;;;;;;;;;;;;15.95;44.18;100096.78;5100005;28;1233;-46
2023/11/22 03:16:49;;;;;;;;;;;;;;;16.62;44.99;100098.50;5099661;28;1242;-48
2023/11/22 03:19:14;;;;;;;;;;;;;;;16.05;45.13;100102.22;5098116;28;1274;-44
2023/11/22 03:21:40;;;;;;;;;;;;;;;15.90;43.76;100097.16;5098462;28;1133;-45
2023/11/22 03:24:08;;;;;;;;;;;;;;;16.74;44.88;100104.59;5100102;28;1034;-48
2023/11/22 03:26:34;;;;;;;;;;;;;;;16.16;44.90;100102.19;5099222;28;1980;-46
2023/11/22 03:28:59;;;;;;;;;;;;;;;16.12;45.15;100103.41;5099355;28;1141;-48
2023/11/22 03:31:26;;;;;;;;;;;;;;;16.50;44.93;100108.34;5098005;28;1158;-47
2023/11/22 03:33:52;;;;;;;;;;;;;;;16.06;44.84;100105.72;5099682;28;1123;-46
2023/11/22 03:36:18;;;;;;;;;;;;;;;15.95;43.82;100104.75;5099466;28;1208;-44
2023/11/22 03:38:44;;;;;;;;;;;;;;;15.83;43.63;100106.56;5099586;28;1154;-45
2023/11/22 03:41:11;;;;;;;;;;;;;;;16.77;45.12;100097.22;5097838;28;1147;-51
2023/11/22 03:43:36;;;;;;;;;;;;;;;16.27;44.99;100098.66;5099265;28;1109;-44
2023/11/22 03:46:02;;;;;;;;;;;;;;;15.97;44.33;100096.66;5099481;28;1980;-44
2023/11/22 03:48:28;;;;;;;;;;;;;;;15.84;43.41;100096.81;5099302;28;1116;-47
2023/11/22 03:50:53;;;;;;;;;;;;;;;16.61;45.08;100096.84;5099048;28;1288;-47
2023/11/22 03:53:21;;;;;;;;;;;;;;;16.09;44.85;100100.16;5099204;28;1144;-47
2023/11/22 03:55:47;;;;;;;;;;;;;;;16.93;45.22;100100.41;5098696;28;1085;-43
2023/11/22 03:58:13;;;;;;;;;;;;;;;17.05;45.04;100103.81;5099180;28;1144;-46
2023/11/22 04:00:38;;;;;;;;;;;;;;;16.49;44.80;100101.34;5098712;28;1046;-45
2023/11/22 04:03:04;;;;;;;;;;;;;;;16.19;44.43;100114.38;5099043;28;1046;-46
2023/11/22 04:05:29;;;;;;;;;;;;;;;15.99;43.79;100111.53;5099472;28;1078;-48
2023/11/22 04:07:56;;;;;;;;;;;;;;;16.53;45.55;100100.13;5098623;28;1910;-45
2023/11/22 04:10:22;;;;;;;;;;;;;;;16.73;45.64;100117.03;5098195;28;1237;-46
2023/11/22 04:12:47;;;;;;;;;;;;;;;16.48;46.26;100105.81;5098832;28;1149;-46
2023/11/22 04:15:13;;;;;;;;;;;;;;;17.81;44.95;100102.63;5098226;28;1117;-46
2023/11/22 04:17:40;;;;;;;;;;;;;;;16.89;45.52;100108.63;5088751;28;1066;-45
2023/11/22 04:20:10;;;;;;;;;;;;;;;16.43;45.02;100115.13;5092780;28;1137;-48
2023/11/22 04:22:36;;;;;;;;;;;;;;;16.15;44.11;100110.25;5088013;28;1153;-54
2023/11/22 04:25:02;;;;;;;;;;;;;;;16.06;43.45;100113.69;5095460;28;1050;-49
2023/11/22 04:27:27;;;;;;;;;;;;;;;16.25;44.76;100120.97;5098322;28;1964;-49
2023/11/22 04:29:53;;;;;;;;;;;;;;;16.72;45.74;100125.13;5098085;28;1066;-49
2023/11/22 04:32:18;;;;;;;;;;;;;;;16.26;45.12;100130.63;5092128;28;1140;-52
2023/11/22 04:34:44;;;;;;;;;;;;;;;17.42;45.55;100121.94;5094789;28;1211;-50
2023/11/22 04:37:09;;;;;;;;;;;;;;;16.74;45.95;100129.34;5097878;28;1101;-47
2023/11/22 04:39:35;;;;;;;;;;;;;;;16.41;44.90;100125.88;5084808;28;1083;-49
2023/11/22 04:42:00;;;;;;;;;;;;;;;16.58;46.35;100129.78;5097829;28;1121;-51
2023/11/22 04:44:26;;;;;;;;;;;;;;;16.60;45.67;100130.50;5092720;28;1144;-51
2023/11/22 04:46:52;;;;;;;;;;;;;;;16.28;44.95;100124.22;5088767;28;1898;-52
2023/11/22 04:49:17;;;;;;;;;;;;;;;16.12;43.83;100123.78;5092634;28;1461;-53
2023/11/22 04:51:44;;;;;;;;;;;;;;;16.45;45.56;100129.97;5097737;28;1105;-49
2023/11/22 04:54:09;;;;;;;;;;;;;;;16.68;45.51;100135.19;5082249;28;1173;-53
2023/11/22 04:56:35;;;;;;;;;;;;;;;16.27;45.36;100132.31;5069492;28;1492;-56
2023/11/22 04:59:00;;;;;;;;;;;;;;;17.06;45.02;100140.91;5076295;28;1059;-48
2023/11/22 05:01:31;;;;;;;;;;;;;;;17.16;44.60;100137.47;5061467;28;1339;-47
2023/11/22 05:03:57;;;;;;;;;;;;;;;16.83;43.93;100150.81;5073087;28;1036;-49
2023/11/22 05:06:22;;;;;;;;;;;;;;;16.59;43.89;100146.56;5076652;28;1913;-50
2023/11/22 05:08:47;;;;;;;;;;;;;;;16.62;43.28;100151.63;5077167;28;1125;-53
2023/11/22 05:11:15;;;;;;;;;;;;;;;16.16;42.97;100155.25;5086128;28;1284;-50
2023/11/22 05:13:42;;;;;;;;;;;;;;;16.93;45.48;100153.53;5097264;28;1078;-56
2023/11/22 05:16:08;;;;;;;;;;;;;;;16.34;45.25;100145.94;5097301;28;1195;-50
2023/11/22 05:18:34;;;;;;;;;;;;;;;16.11;44.46;100149.50;5097409;28;1029;-49
2023/11/22 05:20:59;;;;;;;;;;;;;;;16.25;45.38;100158.97;5096961;28;1232;-53
2023/11/22 05:23:25;;;;;;;;;;;;;;;16.49;45.68;100168.56;5097393;28;1087;-50
2023/11/22 05:25:51;;;;;;;;;;;;;;;16.05;45.02;100167.72;5097388;28;1913;-53
2023/11/22 05:28:17;;;;;;;;;;;;;;;15.81;44.46;100174.81;5097042;28;1205;-49
2023/11/22 05:30:43;;;;;;;;;;;;;;;16.86;43.36;100185.09;5096724;28;1157;-50
2023/11/22 05:33:08;;;;;;;;;;;;;;;16.69;43.40;100178.50;5093481;28;1209;-50
2023/11/22 05:35:34;;;;;;;;;;;;;;;16.43;44.34;100181.50;5092833;28;1253;-50
2023/11/22 05:37:59;;;;;;;;;;;;;;;16.95;43.28;100196.75;5097578;28;1078;-48
2023/11/22 05:40:25;;;;;;;;;;;;;;;17.13;42.99;100189.91;5097047;28;1111;-50
2023/11/22 05:42:50;;;;;;;;;;;;;;;16.65;44.16;100191.19;5096663;28;1124;-55
2023/11/22 05:45:16;;;;;;;;;;;;;;;17.30;42.92;100202.75;5096303;28;1136;-53
2023/11/22 05:47:42;;;;;;;;;;;;;;;17.11;43.36;100201.66;5096909;28;1914;-50
2023/11/22 05:50:08;;;;;;;;;;;;;;;16.69;44.42;100200.59;5097001;28;1050;-51
2023/11/22 05:52:33;;;;;;;;;;;;;;;16.58;44.73;100204.13;5087837;28;1360;-47
2023/11/22 05:55:03;;;;;;;;;;;;;;;17.36;43.13;100208.41;5093884;28;1256;-44
2023/11/22 05:57:28;;;;;;;;;;;;;;;16.79;44.29;100219.28;5096459;28;1066;-46
2023/11/22 05:59:54;;;;;;;;;;;;;;;16.55;44.78;100227.47;5097217;28;1225;-47
2023/11/22 06:02:19;;;;;;;;;;;;;;;17.40;43.42;100224.91;5096735;28;1007;-46
2023/11/22 06:04:45;;;;;;;;;;;;;;;17.00;44.09;100240.56;5096578;28;1058;-49
2023/11/22 06:07:10;;;;;;;;;;;;;;;16.61;44.68;100242.88;5096556;28;1902;-48
2023/11/22 06:09:36;;;;;;;;;;;;;;;16.38;45.57;100257.03;5096439;28;981;-44
2023/11/22 06:12:01;;;;;;;;;;;;;;;16.78;44.85;100257.44;5096407;28;1078;-46
2023/11/22 06:14:27;;;;;;;;;;;;;;;17.22;43.73;100267.19;5096151;28;1054;-48
2023/11/22 06:16:52;;;;;;;;;;;;;;;16.63;45.14;100267.50;5096609;28;1152;-46
2023/11/22 06:19:18;;;;;;;;;;;;;;;16.92;44.80;100271.38;5095535;28;1371;-45
2023/11/22 06:21:43;;;;;;;;;;;;;;;17.63;42.97;100273.47;5093641;28;1267;-43
2023/11/22 06:24:11;;;;;;;;;;;;;;;16.94;44.47;100265.00;5090809;28;1257;-49
2023/11/22 06:26:39;;;;;;;;;;;;;;;16.64;45.11;100272.69;5096321;28;1906;-44
2023/11/22 06:29:05;;;;;;;;;;;;;;;16.95;44.73;100263.19;5096340;28;1042;-45
2023/11/22 06:31:30;;;;;;;;;;;;;;;17.44;43.37;100273.38;5087505;28;1133;-46
2023/11/22 06:33:56;;;;;;;;;;;;;;;16.87;44.69;100274.44;5090354;28;1312;-43
2023/11/22 06:36:21;;;;;;;;;;;;;;;16.59;45.36;100274.88;5083068;28;1374;-42
2023/11/22 06:38:48;;;;;;;;;;;;;;;16.62;45.68;100271.13;5090296;28;985;-42
2023/11/22 06:41:13;;;;;;;;;;;;;;;17.58;43.48;100272.22;5080402;28;1264;-43
2023/11/22 06:43:39;;;;;;;;;;;;;;;16.97;44.61;100286.00;5096724;28;1109;-42
2023/11/22 06:46:05;;;;;;;;;;;;;;;16.62;45.62;100281.75;5095946;28;1980;-39
2023/11/22 06:48:32;;;;;;;;;;;;;;;17.15;44.47;100287.31;5100753;28;1120;-42
2023/11/22 06:50:57;;;;;;;;;;;;;;;17.23;44.17;100288.31;5096103;28;1124;-44
2023/11/22 06:53:25;;;;;;;;;;;;;;;16.80;45.15;100290.03;5092501;28;1149;-42
2023/11/22 06:55:51;;;;;;;;;;;;;;;16.60;45.90;100283.69;5100545;28;1136;-43
2023/11/22 06:58:17;;;;;;;;;;;;;;;17.41;43.64;100298.41;5099800;28;1078;-46
2023/11/22 07:00:44;;;;;;;;;;;;;;;16.85;45.05;100292.34;5098517;28;1182;-43
2023/11/22 07:03:10;;;;;;;;;;;;;;;16.62;45.78;100295.00;5080820;28;1154;-41
2023/11/22 07:05:36;;;;;;;;;;;;;;;17.49;43.71;100292.44;5094274;28;1066;-48
2023/11/22 07:08:02;;;;;;;;;;;;;;;16.89;45.12;100294.59;5104914;28;1967;-45
2023/11/22 07:10:27;;;;;;;;;;;;;;;16.61;45.62;100296.84;5098453;28;1143;-45
2023/11/22 07:12:53;;;;;;;;;;;;;;;16.97;45.42;100317.88;5098965;28;1030;-50
2023/11/22 07:15:18;;;;;;;;;;;;;;;18.36;44.06;100294.88;5099376;28;1162;-54
2023/11/22 07:17:45;;;;;;;;;;;;;;;18.81;42.73;100298.91;5106259;28;1327;-59
2023/11/22 07:20:16;;;;;;;;;;;;;;;19.54;41.65;100302.16;5099172;28;1358;-60
2023/11/22 07:22:43;;;;;;;;;;;;;;;19.85;41.17;100310.94;5100618;28;1028;-53
2023/11/22 07:25:17;;;;;;;;;;;;;;;19.82;41.66;100306.72;5102872;28;1100;-56
2023/11/22 07:27:46;;;;;;;;;;;;;;;20.15;41.24;100312.53;5098607;28;1901;-46
2023/11/22 07:30:13;;;;;;;;;;;;;;;20.35;41.05;100314.28;5098839;28;1399;-51
2023/11/22 07:32:39;;;;;;;;;;;;;;;20.41;41.46;100305.69;5084524;28;955;-52
2023/11/22 07:35:05;;;;;;;;;;;;;;;20.53;41.40;100299.16;5092376;28;1309;-53
2023/11/22 07:37:31;;;;;;;;;;;;;;;20.67;41.03;100303.13;5088240;28;1086;-52
2023/11/22 07:39:57;;;;;;;;;;;;;;;20.71;41.08;100305.50;5097334;28;1119;-56
2023/11/22 07:42:23;;;;;;;;;;;;;;;20.83;41.22;100317.69;5093933;28;1077;-57
2023/11/22 07:44:55;;;;;;;;;;;;;;;21.05;40.89;100318.25;5097431;28;1158;-61
2023/11/22 07:47:22;;;;;;;;;;;;;;;21.19;40.66;100322.22;5098304;28;1889;-63
2023/11/22 07:49:48;;;;;;;;;;;;;;;21.24;40.89;100324.41;5083843;28;1336;-49
2023/11/22 07:52:14;;;;;;;;;;;;;;;21.38;40.72;100315.03;5096920;28;1581;-54
2023/11/22 07:54:40;;;;;;;;;;;;;;;21.43;40.99;100317.22;5101266;28;1156;-59
2023/11/22 07:57:07;;;;;;;;;;;;;;;21.50;40.90;100318.28;5096382;28;1300;-48
2023/11/22 07:59:32;;;;;;;;;;;;;;;21.95;40.15;100319.13;5097825;28;1173;-52
2023/11/22 08:01:58;;;;;;;;;;;;;;;21.81;40.58;100320.53;5085738;28;1393;-58
2023/11/22 08:04:24;;;;;;;;;;;;;;;22.03;40.37;100323.69;5097481;28;1207;-56
2023/11/22 08:06:51;;;;;;;;;;;;;;;22.19;40.37;100338.19;5088073;28;1903;-51
2023/11/22 08:09:17;;;;;;;;;;;;;;;22.24;40.30;100325.97;5086097;28;1367;-61
2023/11/22 08:11:43;;;;;;;;;;;;;;;22.18;40.69;100331.97;5091907;28;1435;-57
2023/11/22 08:14:08;;;;;;;;;;;;;;;22.36;40.39;100331.88;5091854;28;1337;-48
2023/11/22 08:16:38;;;;;;;;;;;;;;;22.34;40.50;100331.19;5085264;28;1147;-51
2023/11/22 08:19:05;;;;;;;;;;;;;;;22.51;40.27;100323.22;5103615;28;1154;-55
2023/11/22 08:21:30;;;;;;;;;;;;;;;22.72;39.95;100314.75;5096457;28;1348;-50
2023/11/22 08:23:56;;;;;;;;;;;;;;;22.73;40.13;100329.03;5083438;28;1534;-51
2023/11/22 08:26:21;;;;;;;;;;;;;;;22.75;40.09;100327.84;5095249;28;1917;-47
2023/11/22 08:28:47;;;;;;;;;;;;;;;22.89;39.86;100325.53;5090227;28;1306;-55
2023/11/22 08:31:13;;;;;;;;;;;;;;;23.07;39.56;100329.94;5097574;28;1478;-54
2023/11/22 08:33:38;;;;;;;;;;;;;;;22.78;40.24;100336.56;5084194;28;1343;-56
2023/11/22 08:36:07;;;;;;;;;;;;;;;22.69;40.41;100341.91;5099125;28;1212;-54
2023/11/22 08:38:33;;;;;;;;;;;;;;;21.96;41.66;100354.78;5098425;28;1081;-57
2023/11/22 08:41:02;;;;;;;;;;;;;;;21.30;44.11;100361.28;5104763;28;1341;-58
2023/11/22 08:43:28;;;;;;;;;;;;;;;21.99;42.44;100365.16;5095584;28;1196;-56
2023/11/22 08:45:53;;;;;;;;;;;;;;;22.30;41.61;100366.53;5094171;28;1910;-56
2023/11/22 08:48:19;;;;;;;;;;;;;;;22.53;41.19;100371.31;5086993;28;1084;-49
2023/11/22 08:50:47;;;;;;;;;;;;;;;23.06;40.14;100376.53;5098273;28;1125;-51
2023/11/22 08:53:12;;;;;;;;;;;;;;;23.51;39.22;100371.75;5095388;28;1253;-54
2023/11/22 08:55:38;;;;;;;;;;;;;;;23.41;39.39;100371.06;5097714;28;1419;-54
2023/11/22 08:58:05;;;;;;;;;;;;;;;23.67;38.97;100359.31;5098147;28;1384;-55
2023/11/22 09:00:32;;;;;;;;;;;;;;;23.19;39.30;100366.16;5097324;28;1102;-53
2023/11/22 09:02:57;;;;;;;;;;;;;;;22.59;39.20;100378.69;5097267;28;1349;-56
2023/11/22 09:05:23;;;;;;;;;;;;;;;22.05;39.20;100372.59;5094392;28;1113;-50
2023/11/22 09:07:48;;;;;;;;;;;;;;;22.18;41.04;100361.44;5104898;28;1905;-54
2023/11/22 09:10:14;;;;;;;;;;;;;;;21.97;42.07;100357.28;5098444;28;1330;-48
2023/11/22 09:12:40;;;;;;;;;;;;;;;21.85;43.00;100363.91;5114352;28;1349;-56
2023/11/22 09:15:10;;;;;;;;;;;;;;;21.97;43.24;100369.88;5105453;28;1225;-47
2023/11/22 09:17:38;;;;;;;;;;;;;;;22.33;42.46;100371.56;5102023;28;1286;-47
2023/11/22 09:20:06;;;;;;;;;;;;;;;22.37;42.39;100379.09;5096787;28;1118;-49
2023/11/22 09:22:32;;;;;;;;;;;;;;;22.49;42.25;100381.50;5102440;28;1405;-54
2023/11/22 09:24:57;;;;;;;;;;;;;;;22.58;41.97;100393.97;5087074;28;1058;-57
2023/11/22 09:27:23;;;;;;;;;;;;;;;22.37;42.67;100392.50;5103589;28;1918;-56
2023/11/22 09:29:49;;;;;;;;;;;;;;;22.46;42.46;100401.44;5082981;28;1059;-53
2023/11/22 09:32:15;;;;;;;;;;;;;;;22.58;42.21;100407.38;5081407;28;1293;-52
2023/11/22 09:34:41;;;;;;;;;;;;;;;22.68;42.17;100401.91;5091575;28;1391;-59
2023/11/22 09:37:08;;;;;;;;;;;;;;;22.82;41.99;100407.66;5092116;28;1413;-45
2023/11/22 09:39:34;;;;;;;;;;;;;;;22.70;42.19;100407.09;5094516;28;1518;-46
2023/11/22 09:42:01;;;;;;;;;;;;;;;22.45;42.77;100407.81;5098460;28;1282;-45
2023/11/22 09:44:26;;;;;;;;;;;;;;;22.46;42.87;100404.13;5129963;27;1191;-47
2023/11/22 09:46:53;;;;;;;;;;;;;;;22.69;42.27;100411.63;5090249;28;1976;-46
2023/11/22 09:49:19;;;;;;;;;;;;;;;22.40;42.79;100410.13;5121250;27;1537;-51
2023/11/22 09:51:45;;;;;;;;;;;;;;;22.67;42.52;100404.75;5095631;28;1018;-46
2023/11/22 09:54:14;;;;;;;;;;;;;;;22.52;42.73;100405.34;5106081;28;1091;-44
2023/11/22 09:56:40;;;;;;;;;;;;;;;22.78;41.87;100398.25;5102754;28;1137;-48
2023/11/22 09:59:07;;;;;;;;;;;;;;;18.86;49.58;100407.75;5123906;27;1110;-45
2023/11/22 10:01:33;;;;;;;;;;;;;;;15.96;55.62;100402.72;5088824;28;1058;-43
2023/11/22 10:03:59;;;;;;;;;;;;;;;16.08;57.22;100398.31;5096270;28;1007;-43
2023/11/22 10:06:24;;;;;;;;;;;;;;;16.99;52.98;100398.31;5096295;28;1901;-45
2023/11/22 10:08:51;;;;;;;;;;;;;;;17.10;51.78;100404.63;5095958;28;1142;-43
2023/11/22 10:11:43;;;;;;;;;;;;;;;17.05;51.41;100404.94;5076980;28;1294;-41
2023/11/22 10:14:09;;;;;;;;;;;;;;;16.92;51.21;100406.88;5058451;28;1408;-43
2023/11/22 10:16:34;;;;;;;;;;;;;;;16.77;51.24;100412.47;5058387;28;1087;-41
2023/11/22 10:19:00;;;;;;;;;;;;;;;16.59;50.97;100417.41;5063359;28;1044;-43
2023/11/22 10:21:27;;;;;;;;;;;;;;;16.55;51.05;100410.69;5073174;28;1086;-36
2023/11/22 10:23:59;;;;;;;;;;;;;;;16.50;51.02;100418.97;5068973;28;970;-39
2023/11/22 10:26:27;;;;;;;;;;;;;;;16.40;51.12;100416.19;5062744;28;1015;-46
2023/11/22 10:28:55;;;;;;;;;;;;;;;16.19;51.25;100419.56;5073366;28;1070;-43
2023/11/22 10:32:56;;;;;;;;;;;;;;;16.05;50.83;100417.94;5026652;27;1433966;-44
2023/11/22 10:35:24;;;;;;;;;;;;;;;15.96;50.97;100411.53;5064530;28;1741;-46
2023/11/22 10:37:50;;;;;;;;;;;;;;;15.76;51.13;100407.72;5065418;28;1231;-46
2023/11/22 10:40:15;;;;;;;;;;;;;;;15.76;51.05;100420.97;5066967;28;1170;-48
2023/11/22 10:42:42;;;;;;;;;;;;;;;15.72;50.67;100420.34;5062938;28;1987;-43
2023/11/22 10:45:08;;;;;;;;;;;;;;;15.56;51.22;100412.72;5075844;28;1052;-46
2023/11/22 10:47:38;;;;;;;;;;;;;;;15.49;50.67;100425.56;5075299;28;1087;-44
2023/11/22 10:50:04;;;;;;;;;;;;;;;15.34;51.36;100416.94;5091589;28;1345;-42
2023/11/22 10:52:30;;;;;;;;;;;;;;;15.26;50.97;100425.47;5090958;28;1017;-43
2023/11/22 10:54:57;;;;;;;;;;;;;;;15.20;50.85;100423.22;5075299;28;1123;-45
2023/11/22 10:57:24;;;;;;;;;;;;;;;15.08;51.04;100432.91;5069343;28;1207;-44
2023/11/22 10:59:51;;;;;;;;;;;;;;;15.05;51.32;100427.84;5068443;28;1076;-43
2023/11/22 11:02:17;;;;;;;;;;;;;;;14.97;51.29;100414.28;5075338;28;1984;-44
2023/11/22 11:05:07;;;;;;;;;;;;;;;14.88;51.26;100429.06;5074893;28;1179;-47
2023/11/22 11:07:33;;;;;;;;;;;;;;;14.83;51.09;100424.06;5056407;28;1064;-45
2023/11/22 11:09:58;;;;;;;;;;;;;;;15.02;51.72;100420.09;5066991;28;1151;-42
2023/11/22 11:12:24;;;;;;;;;;;;;;;15.73;51.81;100422.03;5071707;28;1303;-43
2023/11/22 11:14:50;;;;;;;;;;;;;;;17.87;46.05;100431.16;5070983;28;955;-43
2023/11/22 11:17:15;;;;;;;;;;;;;;;19.07;42.94;100442.31;5092916;28;1057;-41
2023/11/22 11:19:43;;;;;;;;;;;;;;;19.86;41.27;100444.25;5092497;28;1167;-44
2023/11/22 11:22:10;;;;;;;;;;;;;;;20.50;39.96;100448.25;5092910;28;1909;-47
2023/11/22 11:24:39;;;;;;;;;;;;;;;20.89;39.04;100444.53;5091735;28;965;-47
2023/11/22 11:27:06;;;;;;;;;;;;;;;20.91;40.66;100447.94;5091311;28;1011;-45
2023/11/22 11:29:32;;;;;;;;;;;;;;;17.81;47.47;100442.31;5073502;28;1290;-48
2023/11/22 11:31:57;;;;;;;;;;;;;;;16.17;51.88;100442.72;5086835;28;1039;-43
2023/11/22 11:34:23;;;;;;;;;;;;;;;16.13;51.69;100443.94;5082992;28;1126;-46
2023/11/22 11:36:52;;;;;;;;;;;;;;;16.01;51.71;100451.00;5086560;28;1146;-44
2023/11/22 11:39:19;;;;;;;;;;;;;;;15.78;51.55;100449.06;5072255;28;1028;-50
2023/11/22 11:41:44;;;;;;;;;;;;;;;15.69;51.41;100440.94;5073996;28;1979;-44
2023/11/22 11:44:10;;;;;;;;;;;;;;;15.59;51.63;100448.75;5079902;28;1192;-47
2023/11/22 11:46:36;;;;;;;;;;;;;;;15.42;51.49;100456.13;5072397;28;1082;-50
2023/11/22 11:49:04;;;;;;;;;;;;;;;15.34;51.16;100455.84;5060390;28;936;-46
2023/11/22 11:51:29;;;;;;;;;;;;;;;15.23;51.66;100468.06;5047964;28;1165;-46
2023/11/22 11:53:55;;;;;;;;;;;;;;;15.16;51.24;100470.28;5078655;28;1146;-45
2023/11/22 11:56:21;;;;;;;;;;;;;;;15.04;51.69;100476.47;5077083;28;1130;-40
2023/11/22 11:58:47;;;;;;;;;;;;;;;14.99;51.09;100470.66;5065996;28;1071;-46
2023/11/22 12:01:13;;;;;;;;;;;;;;;14.86;51.08;100474.19;5071645;28;1914;-46
2023/11/22 12:03:39;;;;;;;;;;;;;;;14.74;51.55;100481.16;5072183;28;1043;-40
2023/11/22 12:06:05;;;;;;;;;;;;;;;14.71;51.57;100477.88;5076918;28;1115;-48
2023/11/22 12:08:35;;;;;;;;;;;;;;;14.62;51.18;100479.34;5066317;28;1091;-47
2023/11/22 12:11:02;;;;;;;;;;;;;;;14.55;51.10;100482.41;5061492;28;1583;-42
2023/11/22 12:13:28;;;;;;;;;;;;;;;14.54;51.20;100485.16;5071537;28;1226;-45
2023/11/22 12:15:54;;;;;;;;;;;;;;;14.47;51.50;100491.81;5058305;28;1052;-44
2023/11/22 12:18:19;;;;;;;;;;;;;;;14.31;52.46;100500.81;5077940;28;1221;-45
2023/11/22 12:20:55;;;;;;;;;;;;;;;14.40;52.33;100494.03;5060924;28;1906;-49
2023/11/22 12:23:21;;;;;;;;;;;;;;;14.37;51.85;100499.53;5066460;28;1195;-53
2023/11/22 12:25:49;;;;;;;;;;;;;;;14.35;51.81;100493.53;5054225;28;1309;-46
2023/11/22 12:28:16;;;;;;;;;;;;;;;14.34;52.05;100503.25;5068581;28;1432;-47
2023/11/22 12:30:42;;;;;;;;;;;;;;;14.48;52.45;100507.59;5070074;28;1149;-49
2023/11/22 12:33:08;;;;;;;;;;;;;;;14.42;52.35;100510.66;5066519;28;1506;-46
2023/11/22 12:35:34;;;;;;;;;;;;;;;14.37;52.55;100520.72;5067250;28;1149;-43
2023/11/22 12:38:00;;;;;;;;;;;;;;;14.22;52.39;100519.94;5059610;28;1345;-44
2023/11/22 12:40:27;;;;;;;;;;;;;;;14.33;52.15;100517.41;5069820;28;1274;-47
2023/11/22 12:42:53;;;;;;;;;;;;;;;14.50;52.52;100529.53;5064287;28;1919;-46
2023/11/22 12:45:25;;;;;;;;;;;;;;;14.50;52.31;100533.97;5077604;28;1313;-50